createdAt,value
2022-12-18T00:01:30.205Z,50.10
2022-12-18T00:06:28.676Z,44.00
2022-12-18T00:08:58.622Z,52.00
2022-12-18T00:11:30.213Z,53.40
2022-12-18T00:16:29.289Z,40.80
2022-12-18T00:18:58.987Z,48.08
2022-12-18T00:21:28.539Z,41.92
2022-12-18T00:23:56.306Z,47.92
2022-12-18T00:26:29.136Z,49.67
2022-12-18T00:29:14.755Z,44.05
2022-12-18T00:31:44.693Z,48.33
2022-12-18T00:34:14.660Z,38.33
2022-12-18T00:36:42.582Z,41.45
2022-12-18T00:39:13.218Z,43.05
2022-12-18T00:41:59.191Z,41.33
2022-12-18T00:44:26.670Z,38.75
2022-12-18T00:46:54.124Z,40.25
2022-12-18T00:49:22.092Z,43.78
2022-12-18T00:51:50.332Z,45.88
2022-12-18T00:54:18.823Z,42.72
2022-12-18T00:56:49.228Z,42.95
2022-12-18T00:59:18.995Z,41.13
2022-12-18T01:01:47.936Z,40.05
2022-12-18T01:04:16.039Z,38.67
2022-12-18T01:06:46.442Z,42.50
2022-12-18T01:09:14.503Z,38.10
2022-12-18T01:11:41.954Z,38.28
2022-12-18T01:14:09.576Z,41.10
2022-12-18T01:16:38.717Z,37.55
2022-12-18T01:19:06.267Z,40.72
2022-12-18T01:21:34.454Z,35.03
2022-12-18T01:24:05.957Z,33.77
2022-12-18T01:26:33.716Z,38.17
2022-12-18T01:29:01.213Z,33.80
2022-12-18T01:31:34.050Z,30.83
2022-12-18T01:34:08.125Z,34.45
2022-12-18T01:36:41.230Z,31.98
2022-12-18T01:39:14.582Z,29.50
2022-12-18T01:42:01.936Z,32.03
2022-12-18T01:45:03.132Z,32.03
2022-12-18T01:47:47.565Z,35.30
2022-12-18T01:50:20.846Z,32.92
2022-12-18T01:52:54.487Z,30.67
2022-12-18T01:55:29.016Z,27.52
2022-12-18T01:58:00.363Z,32.83
2022-12-18T02:00:29.116Z,34.28
2022-12-18T02:02:57.533Z,31.35
2022-12-18T02:06:06.729Z,30.63
2022-12-18T02:09:12.037Z,34.85
2022-12-18T02:11:48.415Z,26.35
2022-12-18T02:14:45.477Z,26.75
2022-12-18T02:17:43.897Z,30.00
2022-12-18T02:20:28.916Z,32.22
2022-12-18T02:23:34.110Z,31.48
2022-12-18T02:26:31.927Z,28.00
2022-12-18T02:29:28.934Z,27.48
2022-12-18T02:32:05.524Z,31.48
2022-12-18T02:34:39.299Z,32.72
2022-12-18T02:37:17.137Z,26.75
2022-12-18T02:39:49.470Z,29.92
2022-12-18T02:42:19.610Z,27.02
2022-12-18T02:44:51.916Z,26.30
2022-12-18T02:47:37.020Z,25.70
2022-12-18T02:50:35.594Z,29.83
2022-12-18T02:53:21.954Z,29.45
2022-12-18T02:56:10.840Z,26.65
2022-12-18T02:59:00.112Z,25.02
2022-12-18T03:02:01.117Z,32.65
2022-12-18T03:04:41.117Z,25.73
2022-12-18T03:07:18.520Z,26.33
2022-12-18T03:09:52.813Z,26.90
2022-12-18T03:12:37.608Z,22.13
2022-12-18T03:15:18.143Z,24.23
2022-12-18T03:18:07.595Z,23.67
2022-12-18T03:20:40.911Z,24.05
2022-12-18T03:23:16.184Z,22.67
2022-12-18T03:25:52.187Z,25.85
2022-12-18T03:28:23.545Z,24.48
2022-12-18T03:31:02.062Z,24.05
2022-12-18T03:33:48.190Z,24.80
2022-12-18T03:36:16.500Z,23.85
2022-12-18T03:38:44.144Z,24.63
2022-12-18T03:41:34.654Z,22.98
2022-12-18T03:45:08.973Z,30.95
2022-12-18T03:48:00.454Z,22.85
2022-12-18T03:50:49.800Z,23.58
2022-12-18T03:53:36.504Z,26.88
2022-12-18T03:56:06.375Z,24.00
2022-12-18T03:58:41.583Z,23.35
2022-12-18T04:01:23.481Z,26.20
2022-12-18T04:03:53.859Z,23.90
2022-12-18T04:06:22.617Z,22.17
2022-12-18T04:08:50.422Z,22.42
2022-12-18T04:11:22.305Z,20.52
2022-12-18T04:13:49.837Z,18.70
2022-12-18T04:16:23.537Z,20.80
2022-12-18T04:18:55.156Z,26.77
2022-12-18T04:21:25.262Z,21.42
2022-12-18T04:23:53.714Z,21.73
2022-12-18T04:26:23.735Z,22.95
2022-12-18T04:29:17.352Z,18.83
2022-12-18T04:31:44.797Z,22.67
2022-12-18T04:34:12.630Z,20.80
2022-12-18T04:36:48.165Z,22.38
2022-12-18T04:39:16.310Z,24.13
2022-12-18T04:41:48.802Z,23.27
2022-12-18T04:44:16.266Z,22.58
2022-12-18T04:46:44.157Z,23.55
2022-12-18T04:49:11.822Z,23.27
2022-12-18T04:51:39.616Z,19.42
2022-12-18T04:54:07.097Z,21.00
2022-12-18T04:56:35.164Z,22.20
2022-12-18T04:59:02.801Z,23.35
2022-12-18T05:01:34.479Z,19.05
2022-12-18T05:04:03.781Z,26.15
2022-12-18T05:06:31.308Z,20.70
2022-12-18T05:08:58.825Z,18.90
2022-12-18T05:11:28.168Z,21.15
2022-12-18T05:13:55.578Z,17.40
2022-12-18T05:16:23.106Z,21.27
2022-12-18T05:18:50.560Z,19.45
2022-12-18T05:21:18.060Z,19.67
2022-12-18T05:23:45.479Z,21.23
2022-12-18T05:26:18.712Z,21.90
2022-12-18T05:28:46.957Z,20.40
2022-12-18T05:31:15.746Z,19.95
2022-12-18T05:33:43.890Z,20.40
2022-12-18T05:36:12.363Z,22.52
2022-12-18T05:38:40.274Z,23.70
2022-12-18T05:41:09.370Z,18.17
2022-12-18T05:43:40.183Z,23.90
2022-12-18T05:46:12.828Z,20.98
2022-12-18T05:48:40.428Z,21.70
2022-12-18T05:51:15.545Z,20.23
2022-12-18T05:53:44.197Z,20.95
2022-12-18T05:56:23.727Z,20.10
2022-12-18T05:58:55.468Z,20.05
2022-12-18T06:01:27.224Z,19.48
2022-12-18T06:03:56.312Z,22.27
2022-12-18T06:06:27.531Z,25.33
2022-12-18T06:08:56.302Z,21.55
2022-12-18T06:11:27.651Z,19.50
2022-12-18T06:13:59.083Z,23.33
2022-12-18T06:16:28.941Z,22.08
2022-12-18T06:19:01.972Z,24.08
2022-12-18T06:21:30.465Z,23.95
2022-12-18T06:23:59.298Z,20.45
2022-12-18T06:26:28.577Z,19.27
2022-12-18T06:28:56.369Z,24.45
2022-12-18T06:31:23.990Z,20.95
2022-12-18T06:33:51.576Z,23.88
2022-12-18T06:36:19.247Z,23.92
2022-12-18T06:38:46.669Z,17.65
2022-12-18T06:41:21.183Z,22.05
2022-12-18T06:43:48.742Z,20.77
2022-12-18T06:46:16.430Z,21.65
2022-12-18T06:48:43.866Z,21.75
2022-12-18T06:51:11.342Z,24.23
2022-12-18T06:53:39.135Z,22.77
2022-12-18T06:56:10.623Z,21.60
2022-12-18T07:01:12.408Z,20.02
2022-12-18T07:03:42.502Z,19.52
2022-12-18T07:06:22.577Z,19.67
2022-12-18T07:08:50.951Z,19.38
2022-12-18T07:11:19.417Z,21.33
2022-12-18T07:13:47.492Z,21.75
2022-12-18T07:16:24.797Z,19.70
2022-12-18T07:18:56.194Z,19.02
2022-12-18T07:21:25.235Z,18.05
2022-12-18T07:23:52.781Z,20.33
2022-12-18T07:26:22.574Z,21.40
2022-12-18T07:28:50.869Z,21.17
2022-12-18T07:31:22.560Z,19.77
2022-12-18T07:33:51.974Z,18.90
2022-12-18T07:36:20.326Z,19.58
2022-12-18T07:38:52.527Z,17.90
2022-12-18T07:41:21.271Z,20.42
2022-12-18T07:43:49.404Z,21.42
2022-12-18T07:46:17.384Z,26.65
2022-12-18T07:48:49.504Z,19.42
2022-12-18T07:51:19.662Z,21.35
2022-12-18T07:53:48.784Z,18.67
2022-12-18T07:56:29.416Z,23.30
2022-12-18T07:58:58.599Z,23.27
2022-12-18T08:01:26.899Z,20.48
2022-12-18T08:03:54.624Z,21.63
2022-12-18T08:06:22.562Z,23.63
2022-12-18T08:08:56.772Z,22.75
2022-12-18T08:11:27.289Z,21.50
2022-12-18T08:13:55.344Z,23.88
2022-12-18T08:16:24.603Z,23.35
2022-12-18T08:18:54.352Z,22.15
2022-12-18T08:21:27.752Z,21.20
2022-12-18T08:23:58.509Z,21.30
2022-12-18T08:26:29.792Z,20.40
2022-12-18T08:28:59.511Z,19.43
2022-12-18T08:31:29.388Z,19.90
2022-12-18T08:33:57.936Z,23.65
2022-12-18T08:36:26.369Z,22.35
2022-12-18T08:38:54.953Z,27.67
2022-12-18T08:41:22.841Z,22.50
2022-12-18T08:44:09.356Z,21.83
2022-12-18T08:46:43.283Z,21.60
2022-12-18T08:49:12.821Z,24.25
2022-12-18T08:51:41.107Z,22.95
2022-12-18T08:54:12.759Z,24.65
2022-12-18T08:56:40.182Z,21.55
2022-12-18T08:59:07.605Z,22.60
2022-12-18T09:01:35.518Z,24.17
2022-12-18T09:04:04.611Z,26.40
2022-12-18T09:06:34.181Z,18.55
2022-12-18T09:09:02.112Z,28.35
2022-12-18T09:11:31.314Z,27.30
2022-12-18T09:14:01.525Z,27.05
2022-12-18T09:16:32.565Z,25.98
2022-12-18T09:19:01.966Z,26.15
2022-12-18T09:21:42.210Z,25.42
2022-12-18T09:24:15.248Z,27.00
2022-12-18T09:26:46.885Z,22.08
2022-12-18T09:29:18.988Z,27.27
2022-12-18T09:31:46.973Z,23.98
2022-12-18T09:34:14.500Z,26.08
2022-12-18T09:36:41.931Z,26.45
2022-12-18T09:39:11.184Z,26.42
2022-12-18T09:41:48.428Z,26.00
2022-12-18T09:44:37.744Z,25.08
2022-12-18T09:47:26.755Z,24.58
2022-12-18T09:50:02.914Z,23.88
2022-12-18T09:52:49.155Z,27.77
2022-12-18T09:55:40.702Z,24.75
2022-12-18T09:58:25.715Z,26.33
2022-12-18T10:00:54.517Z,24.52
2022-12-18T10:03:23.134Z,25.65
2022-12-18T10:06:19.512Z,24.77
2022-12-18T10:08:56.702Z,24.55
2022-12-18T10:11:50.084Z,26.25
2022-12-18T10:14:23.527Z,24.08
2022-12-18T10:17:12.174Z,24.98
2022-12-18T10:19:55.504Z,23.35
2022-12-18T10:22:44.005Z,22.10
2022-12-18T10:25:24.992Z,23.98
2022-12-18T10:28:13.127Z,25.00
2022-12-18T10:30:43.027Z,26.08
2022-12-18T10:33:20.194Z,30.90
2022-12-18T10:35:51.476Z,21.88
2022-12-18T10:38:18.892Z,24.15
2022-12-18T10:40:55.199Z,21.67
2022-12-18T10:43:26.378Z,22.50
2022-12-18T10:46:17.949Z,22.70
2022-12-18T10:48:53.873Z,22.58
2022-12-18T10:51:34.757Z,24.23
2022-12-18T10:54:15.768Z,22.23
2022-12-18T10:56:44.259Z,21.83
2022-12-18T10:59:16.104Z,23.08
2022-12-18T11:01:58.865Z,22.25
2022-12-18T11:04:31.060Z,23.98
2022-12-18T11:07:09.926Z,23.63
2022-12-18T11:09:40.760Z,22.52
2022-12-18T11:12:11.175Z,23.92
2022-12-18T11:14:54.689Z,23.38
2022-12-18T11:17:36.939Z,21.25
2022-12-18T11:20:25.066Z,24.50
2022-12-18T11:23:01.004Z,21.95
2022-12-18T11:25:33.540Z,24.08
2022-12-18T11:28:34.932Z,22.85
2022-12-18T11:31:28.746Z,22.48
2022-12-18T11:34:30.645Z,22.40
2022-12-18T11:37:01.967Z,23.95
2022-12-18T11:39:50.711Z,26.08
2022-12-18T11:42:28.916Z,23.98
2022-12-18T11:45:10.544Z,24.70
2022-12-18T11:47:51.453Z,23.80
2022-12-18T11:50:26.675Z,23.77
2022-12-18T11:52:58.268Z,22.42
2022-12-18T11:55:50.866Z,21.98
2022-12-18T11:58:52.558Z,27.83
2022-12-18T12:01:45.681Z,22.90
2022-12-18T12:04:40.521Z,23.98
2022-12-18T12:07:35.747Z,24.67
2022-12-18T12:10:40.488Z,24.02
2022-12-18T12:13:56.052Z,22.42
2022-12-18T12:16:35.791Z,22.55
2022-12-18T12:19:42.145Z,23.38
2022-12-18T12:22:24.490Z,23.40
2022-12-18T12:25:13.100Z,22.85
2022-12-18T12:28:16.705Z,23.38
2022-12-18T12:31:08.543Z,23.58
2022-12-18T12:33:57.714Z,26.05
2022-12-18T12:37:02.600Z,23.30
2022-12-18T12:39:40.615Z,21.67
2022-12-18T12:42:43.731Z,24.17
2022-12-18T12:45:25.119Z,22.63
2022-12-18T12:47:55.786Z,23.80
2022-12-18T12:50:24.609Z,23.47
2022-12-18T12:57:48.409Z,23.45
2022-12-18T13:01:58.514Z,24.90
2022-12-18T13:05:02.518Z,25.98
2022-12-18T13:12:08.051Z,24.58
2022-12-18T13:14:40.767Z,25.83
2022-12-18T13:17:22.024Z,25.63
2022-12-18T13:20:05.609Z,24.42
2022-12-18T13:22:41.443Z,24.48
2022-12-18T13:26:01.455Z,25.60
2022-12-18T13:38:27.161Z,24.27
2022-12-18T13:41:08.669Z,23.95
2022-12-18T13:44:18.091Z,23.73
2022-12-18T13:47:58.922Z,23.55
2022-12-18T13:54:41.959Z,25.40
2022-12-18T13:57:32.182Z,25.17
2022-12-18T14:00:32.166Z,23.33
2022-12-18T14:07:48.336Z,24.60
2022-12-18T14:11:40.664Z,23.80
2022-12-18T14:19:03.294Z,28.15
2022-12-18T14:21:54.588Z,23.67
2022-12-18T14:24:36.500Z,25.13
2022-12-18T14:27:34.339Z,25.92
2022-12-18T14:38:28.002Z,25.90
2022-12-18T14:41:26.369Z,28.10
2022-12-18T14:44:07.217Z,25.05
2022-12-18T14:47:39.018Z,23.90
2022-12-18T14:49:49.814Z,26.92
2022-12-18T14:52:55.456Z,26.00
2022-12-18T14:55:52.937Z,26.42
2022-12-18T14:58:23.378Z,27.05
2022-12-18T15:00:51.313Z,26.15
2022-12-18T15:03:39.320Z,26.40
2022-12-18T15:07:21.486Z,25.92
2022-12-18T15:10:17.531Z,26.05
2022-12-18T15:13:20.509Z,28.83
2022-12-18T15:15:49.771Z,27.42
2022-12-18T15:18:23.975Z,26.98
2022-12-18T15:21:00.267Z,26.80
2022-12-18T15:24:01.850Z,29.08
2022-12-18T15:26:40.190Z,28.25
2022-12-18T15:29:47.156Z,27.25
2022-12-18T15:32:33.651Z,26.35
2022-12-18T15:35:25.142Z,26.63
2022-12-18T15:38:06.870Z,29.10
2022-12-18T15:40:38.914Z,29.17
2022-12-18T15:43:29.481Z,29.30
2022-12-18T15:46:02.921Z,30.70
2022-12-18T15:52:56.396Z,30.55
2022-12-18T15:55:48.850Z,27.48
2022-12-18T15:58:22.873Z,32.92
2022-12-18T16:01:18.477Z,29.10
2022-12-18T16:16:43.728Z,31.35
2022-12-18T16:19:11.228Z,29.65
2022-12-18T16:21:38.938Z,31.65
2022-12-18T16:24:10.195Z,29.73
2022-12-18T16:26:37.615Z,31.55
2022-12-18T16:29:05.058Z,27.35
2022-12-18T16:31:34.169Z,30.63
2022-12-18T16:34:24.967Z,30.10
2022-12-18T16:37:04.806Z,31.38
2022-12-18T16:39:37.367Z,31.58
2022-12-18T16:42:17.344Z,34.08
2022-12-18T16:44:46.254Z,29.55
2022-12-18T16:47:14.898Z,34.10
2022-12-18T16:49:45.847Z,30.27
2022-12-18T16:52:14.591Z,34.63
2022-12-18T16:54:42.136Z,32.78
2022-12-18T16:57:15.093Z,34.10
2022-12-18T16:59:42.609Z,31.15
2022-12-18T17:06:16.027Z,30.25
2022-12-18T17:10:04.397Z,33.42
2022-12-18T17:25:33.419Z,34.05
2022-12-18T17:40:40.653Z,29.50
2022-12-18T17:43:08.353Z,32.97
2022-12-18T17:58:37.615Z,34.00
2022-12-18T18:01:18.186Z,31.52
2022-12-18T18:03:47.950Z,33.05
2022-12-18T18:06:18.465Z,33.90
2022-12-18T18:08:45.961Z,34.63
2022-12-18T18:11:37.838Z,33.75
2022-12-18T18:16:48.048Z,34.78
2022-12-18T18:19:22.729Z,37.03
2022-12-18T18:21:53.553Z,34.50
2022-12-18T18:26:51.154Z,32.60
2022-12-18T18:29:26.599Z,37.28
2022-12-18T18:31:54.840Z,36.10
2022-12-18T18:34:25.741Z,33.30
2022-12-18T18:36:53.470Z,33.97
2022-12-18T18:39:21.190Z,33.92
2022-12-18T18:41:48.897Z,33.83
2022-12-18T18:44:18.557Z,37.13
2022-12-18T18:46:46.630Z,37.42
2022-12-18T18:49:15.186Z,36.45
2022-12-18T18:51:42.677Z,34.30
2022-12-18T18:54:10.934Z,37.15
2022-12-18T18:57:11.643Z,33.78
2022-12-18T18:59:30.370Z,36.83
2022-12-18T19:02:04.075Z,35.40
2022-12-18T19:04:33.949Z,35.10
2022-12-18T19:07:04.047Z,33.55
2022-12-18T19:09:55.552Z,36.15
2022-12-18T19:27:51.964Z,33.17
2022-12-18T19:30:30.604Z,35.70
2022-12-18T19:38:07.709Z,34.95
2022-12-18T19:46:07.477Z,36.25
2022-12-18T19:50:07.573Z,35.13
2022-12-18T19:52:36.023Z,33.88
2022-12-18T19:55:04.156Z,37.35
2022-12-18T19:57:32.184Z,36.20
2022-12-18T19:59:59.594Z,37.85
2022-12-18T20:02:27.227Z,35.30
2022-12-18T20:04:54.811Z,35.85
2022-12-18T20:07:22.416Z,33.53
2022-12-18T20:09:53.897Z,39.33
2022-12-18T20:12:27.622Z,37.25
2022-12-18T20:14:58.162Z,35.97
2022-12-18T20:17:25.936Z,36.95
2022-12-18T20:19:53.466Z,39.55
2022-12-18T20:22:21.795Z,33.53
2022-12-18T20:24:50.772Z,42.28
2022-12-18T20:27:19.659Z,40.53
2022-12-18T20:29:48.539Z,44.20
2022-12-18T20:32:20.662Z,40.55
2022-12-18T20:34:48.291Z,39.72
2022-12-18T20:37:16.089Z,40.92
2022-12-18T20:39:44.308Z,39.70
2022-12-18T20:42:11.791Z,38.53
2022-12-18T20:44:39.268Z,42.22
2022-12-18T20:47:12.656Z,38.20
2022-12-18T20:49:40.141Z,39.08
2022-12-18T20:52:12.888Z,42.35
2022-12-18T20:54:40.396Z,37.92
2022-12-18T20:57:07.968Z,43.20
2022-12-18T20:59:40.849Z,38.65
2022-12-18T21:02:13.611Z,42.15
2022-12-18T21:04:41.214Z,37.13
2022-12-18T21:07:08.780Z,44.17
2022-12-18T21:09:38.489Z,40.30
2022-12-18T21:12:35.074Z,40.28
2022-12-18T21:15:10.325Z,39.92
2022-12-18T21:17:44.170Z,42.13
2022-12-18T21:20:18.146Z,39.30
2022-12-18T21:22:47.074Z,46.67
2022-12-18T21:25:14.556Z,45.17
2022-12-18T21:27:41.937Z,42.50
2022-12-18T21:30:09.956Z,41.13
2022-12-18T21:32:37.380Z,40.95
2022-12-18T21:35:05.355Z,45.17
2022-12-18T21:37:32.875Z,44.65
2022-12-18T21:40:00.260Z,47.83
2022-12-18T21:42:46.373Z,44.08
2022-12-18T21:45:15.106Z,47.05
2022-12-18T21:47:45.548Z,45.67
2022-12-18T21:50:13.053Z,47.70
2022-12-18T21:52:40.707Z,48.30
2022-12-18T21:55:10.935Z,47.38
2022-12-18T21:57:39.339Z,45.38
2022-12-18T22:00:17.440Z,47.53
2022-12-18T22:02:48.859Z,41.28
2022-12-18T22:05:38.305Z,43.45
2022-12-18T22:08:08.051Z,46.75
2022-12-18T22:10:37.079Z,46.17
2022-12-18T22:13:06.476Z,51.03
2022-12-18T22:15:34.051Z,46.05
2022-12-18T22:18:01.636Z,45.08
2022-12-18T22:20:30.136Z,49.75
2022-12-18T22:22:58.618Z,49.53
2022-12-18T22:25:26.954Z,43.83
2022-12-18T22:28:16.178Z,43.28
2022-12-18T22:30:43.751Z,50.08
2022-12-18T22:33:11.429Z,50.25
2022-12-18T22:35:38.858Z,51.53
2022-12-18T22:38:06.553Z,46.58
2022-12-18T22:40:33.973Z,50.78
2022-12-18T22:43:01.536Z,50.22
2022-12-18T22:45:29.062Z,50.15
2022-12-18T22:47:59.155Z,47.97
2022-12-18T22:50:27.706Z,50.10
2022-12-18T22:52:55.115Z,52.88
2022-12-18T22:55:22.577Z,48.42
2022-12-18T22:57:50.879Z,51.50
2022-12-18T23:00:20.137Z,50.67
2022-12-18T23:03:00.434Z,51.03
2022-12-18T23:05:30.642Z,53.50
2022-12-18T23:07:59.269Z,46.92
2022-12-18T23:10:27.403Z,47.65
2022-12-18T23:12:54.906Z,53.90
2022-12-18T23:15:27.588Z,47.50
2022-12-18T23:17:58.664Z,49.13
2022-12-18T23:20:28.370Z,53.33
2022-12-18T23:22:55.764Z,52.75
2022-12-18T23:25:23.288Z,55.83
2022-12-18T23:27:51.007Z,52.50
2022-12-18T23:30:19.037Z,53.25
2022-12-18T23:32:46.468Z,49.35
2022-12-18T23:35:15.639Z,57.00
2022-12-18T23:38:00.513Z,51.60
2022-12-18T23:40:29.969Z,50.05
2022-12-18T23:43:00.105Z,49.90
2022-12-18T23:45:27.921Z,56.38
2022-12-18T23:47:55.372Z,53.17
2022-12-18T23:50:28.756Z,54.78
2022-12-18T23:52:57.107Z,54.22
2022-12-18T23:55:30.557Z,52.83
2022-12-18T23:57:57.962Z,51.65
